sensor_id;sensor_type;location;lat;lon;timestamp;temperature;humidity
326;DHT22;150;52.352;14.058;2023-07-13T00:00:55;22.30;19.40
326;DHT22;150;52.352;14.058;2023-07-13T00:03:22;22.20;19.10
326;DHT22;150;52.352;14.058;2023-07-13T00:05:57;22.20;19.40
326;DHT22;150;52.352;14.058;2023-07-13T00:08:24;22.10;19.60
326;DHT22;150;52.352;14.058;2023-07-13T00:10:52;22.10;19.60
326;DHT22;150;52.352;14.058;2023-07-13T00:13:19;22.10;20.20
326;DHT22;150;52.352;14.058;2023-07-13T00:15:48;22.10;20.90
326;DHT22;150;52.352;14.058;2023-07-13T00:18:14;22.10;20.40
326;DHT22;150;52.352;14.058;2023-07-13T00:20:41;22.20;21.00
326;DHT22;150;52.352;14.058;2023-07-13T00:23:08;22.10;20.30
326;DHT22;150;52.352;14.058;2023-07-13T00:25:35;22.10;19.70
326;DHT22;150;52.352;14.058;2023-07-13T00:28:02;22.10;19.90
326;DHT22;150;52.352;14.058;2023-07-13T00:30:28;22.10;20.10
326;DHT22;150;52.352;14.058;2023-07-13T00:32:57;22.10;20.50
326;DHT22;150;52.352;14.058;2023-07-13T00:35:25;22.10;20.40
326;DHT22;150;52.352;14.058;2023-07-13T00:37:52;22.10;20.60
326;DHT22;150;52.352;14.058;2023-07-13T00:40:19;22.10;20.70
326;DHT22;150;52.352;14.058;2023-07-13T00:42:46;22.10;20.80
326;DHT22;150;52.352;14.058;2023-07-13T00:48:19;22.00;20.60
326;DHT22;150;52.352;14.058;2023-07-13T00:50:49;22.00;20.50
326;DHT22;150;52.352;14.058;2023-07-13T00:53:17;22.00;20.30
326;DHT22;150;52.352;14.058;2023-07-13T00:55:45;22.00;20.70
326;DHT22;150;52.352;14.058;2023-07-13T00:58:12;21.90;20.30
326;DHT22;150;52.352;14.058;2023-07-13T01:00:40;22.00;20.30
326;DHT22;150;52.352;14.058;2023-07-13T01:03:07;22.00;21.00
326;DHT22;150;52.352;14.058;2023-07-13T01:05:35;21.90;20.90
326;DHT22;150;52.352;14.058;2023-07-13T01:08:03;21.90;20.10
326;DHT22;150;52.352;14.058;2023-07-13T01:10:30;21.90;20.30
326;DHT22;150;52.352;14.058;2023-07-13T01:13:04;22.00;20.50
326;DHT22;150;52.352;14.058;2023-07-13T01:15:36;22.00;19.80
326;DHT22;150;52.352;14.058;2023-07-13T01:18:07;22.00;20.30
326;DHT22;150;52.352;14.058;2023-07-13T01:20:36;22.00;20.60
326;DHT22;150;52.352;14.058;2023-07-13T01:23:06;21.90;20.60
326;DHT22;150;52.352;14.058;2023-07-13T01:25:34;21.90;19.90
326;DHT22;150;52.352;14.058;2023-07-13T01:28:01;21.90;19.60
326;DHT22;150;52.352;14.058;2023-07-13T01:30:28;21.90;19.90
326;DHT22;150;52.352;14.058;2023-07-13T01:32:56;21.90;20.30
326;DHT22;150;52.352;14.058;2023-07-13T01:35:23;22.30;20.40
326;DHT22;150;52.352;14.058;2023-07-13T01:37:50;21.90;20.30
326;DHT22;150;52.352;14.058;2023-07-13T01:40:19;21.90;20.10
326;DHT22;150;52.352;14.058;2023-07-13T01:42:45;21.80;19.60
326;DHT22;150;52.352;14.058;2023-07-13T01:45:12;21.80;20.20
326;DHT22;150;52.352;14.058;2023-07-13T01:47:39;21.70;20.40
326;DHT22;150;52.352;14.058;2023-07-13T01:50:06;21.80;21.10
326;DHT22;150;52.352;14.058;2023-07-13T01:52:32;21.70;20.40
326;DHT22;150;52.352;14.058;2023-07-13T01:54:59;21.70;20.60
326;DHT22;150;52.352;14.058;2023-07-13T01:57:27;21.70;20.80
326;DHT22;150;52.352;14.058;2023-07-13T01:59:53;21.70;20.80
326;DHT22;150;52.352;14.058;2023-07-13T02:02:20;21.70;20.90
326;DHT22;150;52.352;14.058;2023-07-13T02:04:47;21.60;20.80
326;DHT22;150;52.352;14.058;2023-07-13T02:07:14;21.60;21.50
326;DHT22;150;52.352;14.058;2023-07-13T02:09:41;21.60;20.60
326;DHT22;150;52.352;14.058;2023-07-13T02:12:08;21.60;21.20
326;DHT22;150;52.352;14.058;2023-07-13T02:14:36;21.60;21.40
326;DHT22;150;52.352;14.058;2023-07-13T02:17:04;21.60;21.10
326;DHT22;150;52.352;14.058;2023-07-13T02:19:31;21.60;21.20
326;DHT22;150;52.352;14.058;2023-07-13T02:21:58;21.60;22.10
326;DHT22;150;52.352;14.058;2023-07-13T02:24:24;21.60;21.70
326;DHT22;150;52.352;14.058;2023-07-13T02:26:51;21.60;21.90
326;DHT22;150;52.352;14.058;2023-07-13T02:29:17;21.60;22.10
326;DHT22;150;52.352;14.058;2023-07-13T02:31:46;21.60;22.50
326;DHT22;150;52.352;14.058;2023-07-13T02:34:13;21.60;22.10
326;DHT22;150;52.352;14.058;2023-07-13T02:36:40;21.60;22.70
326;DHT22;150;52.352;14.058;2023-07-13T02:39:07;21.50;22.60
326;DHT22;150;52.352;14.058;2023-07-13T02:41:33;21.50;22.60
326;DHT22;150;52.352;14.058;2023-07-13T02:44:00;21.40;22.60
326;DHT22;150;52.352;14.058;2023-07-13T02:46:30;21.40;22.50
326;DHT22;150;52.352;14.058;2023-07-13T02:48:58;21.30;22.50
326;DHT22;150;52.352;14.058;2023-07-13T02:51:25;21.30;23.00
326;DHT22;150;52.352;14.058;2023-07-13T02:53:52;21.30;23.10
326;DHT22;150;52.352;14.058;2023-07-13T02:56:22;21.30;22.90
326;DHT22;150;52.352;14.058;2023-07-13T02:58:49;21.30;23.10
326;DHT22;150;52.352;14.058;2023-07-13T03:01:15;21.20;23.40
326;DHT22;150;52.352;14.058;2023-07-13T03:03:44;21.20;23.10
326;DHT22;150;52.352;14.058;2023-07-13T03:06:13;21.20;23.50
326;DHT22;150;52.352;14.058;2023-07-13T03:08:40;21.10;23.40
326;DHT22;150;52.352;14.058;2023-07-13T03:11:10;21.10;24.60
326;DHT22;150;52.352;14.058;2023-07-13T03:13:37;21.00;24.20
326;DHT22;150;52.352;14.058;2023-07-13T03:16:04;21.00;24.40
326;DHT22;150;52.352;14.058;2023-07-13T03:18:32;20.90;24.40
326;DHT22;150;52.352;14.058;2023-07-13T03:20:59;21.00;24.40
326;DHT22;150;52.352;14.058;2023-07-13T03:23:27;20.90;24.80
326;DHT22;150;52.352;14.058;2023-07-13T03:26:01;20.90;25.10
326;DHT22;150;52.352;14.058;2023-07-13T03:28:28;20.90;25.30
326;DHT22;150;52.352;14.058;2023-07-13T03:31:00;20.90;25.00
326;DHT22;150;52.352;14.058;2023-07-13T03:33:26;20.80;24.80
326;DHT22;150;52.352;14.058;2023-07-13T03:35:53;20.80;25.40
326;DHT22;150;52.352;14.058;2023-07-13T03:38:20;20.80;25.20
326;DHT22;150;52.352;14.058;2023-07-13T03:40:48;20.80;25.40
326;DHT22;150;52.352;14.058;2023-07-13T03:43:15;20.80;25.10
326;DHT22;150;52.352;14.058;2023-07-13T03:45:41;20.80;24.80
326;DHT22;150;52.352;14.058;2023-07-13T03:48:09;20.80;24.60
326;DHT22;150;52.352;14.058;2023-07-13T03:50:35;20.70;24.30
326;DHT22;150;52.352;14.058;2023-07-13T03:53:02;20.80;24.80
326;DHT22;150;52.352;14.058;2023-07-13T03:55:29;20.90;25.00
326;DHT22;150;52.352;14.058;2023-07-13T03:58:00;21.10;25.10
326;DHT22;150;52.352;14.058;2023-07-13T04:00:27;21.20;24.60
326;DHT22;150;52.352;14.058;2023-07-13T04:02:54;21.40;24.30
326;DHT22;150;52.352;14.058;2023-07-13T04:05:20;21.50;24.40
326;DHT22;150;52.352;14.058;2023-07-13T04:07:47;21.80;24.20
326;DHT22;150;52.352;14.058;2023-07-13T04:10:14;22.20;23.10
326;DHT22;150;52.352;14.058;2023-07-13T04:12:40;22.40;23.20
326;DHT22;150;52.352;14.058;2023-07-13T04:15:09;22.50;22.80
326;DHT22;150;52.352;14.058;2023-07-13T04:17:36;23.10;21.70
326;DHT22;150;52.352;14.058;2023-07-13T04:20:03;23.80;20.00
326;DHT22;150;52.352;14.058;2023-07-13T04:22:30;24.70;18.70
326;DHT22;150;52.352;14.058;2023-07-13T04:24:56;25.40;17.40
326;DHT22;150;52.352;14.058;2023-07-13T04:27:23;25.90;16.50
326;DHT22;150;52.352;14.058;2023-07-13T04:29:52;26.00;16.00
326;DHT22;150;52.352;14.058;2023-07-13T04:32:19;26.60;15.60
326;DHT22;150;52.352;14.058;2023-07-13T04:34:46;26.80;14.70
326;DHT22;150;52.352;14.058;2023-07-13T04:37:19;27.30;13.90
326;DHT22;150;52.352;14.058;2023-07-13T04:39:46;27.80;13.30
326;DHT22;150;52.352;14.058;2023-07-13T04:42:13;28.50;12.30
326;DHT22;150;52.352;14.058;2023-07-13T04:44:40;29.30;11.00
326;DHT22;150;52.352;14.058;2023-07-13T04:47:07;29.90;9.70
326;DHT22;150;52.352;14.058;2023-07-13T04:49:35;30.50;9.40
326;DHT22;150;52.352;14.058;2023-07-13T04:52:02;30.80;8.20
326;DHT22;150;52.352;14.058;2023-07-13T04:54:29;31.00;7.80
326;DHT22;150;52.352;14.058;2023-07-13T04:56:55;30.70;7.60
326;DHT22;150;52.352;14.058;2023-07-13T04:59:22;30.00;8.10
326;DHT22;150;52.352;14.058;2023-07-13T05:01:50;29.30;8.70
326;DHT22;150;52.352;14.058;2023-07-13T05:04:17;28.70;9.90
326;DHT22;150;52.352;14.058;2023-07-13T05:06:45;28.20;11.20
326;DHT22;150;52.352;14.058;2023-07-13T05:09:12;27.60;11.50
326;DHT22;150;52.352;14.058;2023-07-13T05:11:39;27.20;12.40
326;DHT22;150;52.352;14.058;2023-07-13T05:14:06;26.90;13.30
326;DHT22;150;52.352;14.058;2023-07-13T05:16:32;26.50;14.00
326;DHT22;150;52.352;14.058;2023-07-13T05:18:59;26.30;14.50
326;DHT22;150;52.352;14.058;2023-07-13T05:21:26;26.00;14.90
326;DHT22;150;52.352;14.058;2023-07-13T05:23:54;25.70;15.60
326;DHT22;150;52.352;14.058;2023-07-13T05:26:20;25.50;16.20
326;DHT22;150;52.352;14.058;2023-07-13T05:28:47;25.40;16.10
326;DHT22;150;52.352;14.058;2023-07-13T05:31:14;25.30;16.10
326;DHT22;150;52.352;14.058;2023-07-13T05:33:40;25.20;16.00
326;DHT22;150;52.352;14.058;2023-07-13T05:36:07;25.10;16.20
326;DHT22;150;52.352;14.058;2023-07-13T05:38:34;25.00;17.00
326;DHT22;150;52.352;14.058;2023-07-13T05:41:02;24.80;16.90
326;DHT22;150;52.352;14.058;2023-07-13T05:43:29;24.70;17.40
326;DHT22;150;52.352;14.058;2023-07-13T05:45:56;24.70;17.30
326;DHT22;150;52.352;14.058;2023-07-13T05:48:28;24.60;17.30
326;DHT22;150;52.352;14.058;2023-07-13T05:50:54;24.60;17.30
326;DHT22;150;52.352;14.058;2023-07-13T05:53:21;24.60;17.00
326;DHT22;150;52.352;14.058;2023-07-13T05:55:48;24.60;17.00
326;DHT22;150;52.352;14.058;2023-07-13T05:58:17;24.70;16.90
326;DHT22;150;52.352;14.058;2023-07-13T06:00:43;24.80;17.10
326;DHT22;150;52.352;14.058;2023-07-13T06:03:10;24.80;17.20
326;DHT22;150;52.352;14.058;2023-07-13T06:05:40;24.90;17.20
326;DHT22;150;52.352;14.058;2023-07-13T06:08:07;24.90;16.70
326;DHT22;150;52.352;14.058;2023-07-13T06:10:34;24.90;15.90
326;DHT22;150;52.352;14.058;2023-07-13T06:13:00;24.90;16.30
326;DHT22;150;52.352;14.058;2023-07-13T06:15:29;25.00;15.90
326;DHT22;150;52.352;14.058;2023-07-13T06:17:55;25.10;16.70
326;DHT22;150;52.352;14.058;2023-07-13T06:20:22;25.10;16.30
326;DHT22;150;52.352;14.058;2023-07-13T06:22:49;25.20;16.20
326;DHT22;150;52.352;14.058;2023-07-13T06:25:17;25.20;16.10
326;DHT22;150;52.352;14.058;2023-07-13T06:27:44;25.20;16.90
326;DHT22;150;52.352;14.058;2023-07-13T06:30:11;25.10;16.00
326;DHT22;150;52.352;14.058;2023-07-13T06:32:39;25.00;15.90
326;DHT22;150;52.352;14.058;2023-07-13T06:35:06;24.80;16.60
326;DHT22;150;52.352;14.058;2023-07-13T06:37:33;24.90;16.10
326;DHT22;150;52.352;14.058;2023-07-13T06:40:00;25.00;15.90
326;DHT22;150;52.352;14.058;2023-07-13T06:42:26;24.80;16.60
326;DHT22;150;52.352;14.058;2023-07-13T06:44:53;24.90;15.90
326;DHT22;150;52.352;14.058;2023-07-13T06:47:19;24.90;15.90
326;DHT22;150;52.352;14.058;2023-07-13T06:49:47;25.00;15.90
326;DHT22;150;52.352;14.058;2023-07-13T06:52:14;24.90;15.90
326;DHT22;150;52.352;14.058;2023-07-13T06:54:41;25.00;15.90
326;DHT22;150;52.352;14.058;2023-07-13T06:57:07;25.20;16.00
326;DHT22;150;52.352;14.058;2023-07-13T06:59:34;25.20;15.40
326;DHT22;150;52.352;14.058;2023-07-13T07:02:00;25.20;15.60
326;DHT22;150;52.352;14.058;2023-07-13T07:04:27;25.30;16.10
326;DHT22;150;52.352;14.058;2023-07-13T07:06:55;25.40;16.10
326;DHT22;150;52.352;14.058;2023-07-13T07:09:25;25.40;16.10
326;DHT22;150;52.352;14.058;2023-07-13T07:11:55;25.50;15.70
326;DHT22;150;52.352;14.058;2023-07-13T07:14:22;25.50;16.20
326;DHT22;150;52.352;14.058;2023-07-13T07:16:49;25.60;15.30
326;DHT22;150;52.352;14.058;2023-07-13T07:19:18;25.70;16.30
326;DHT22;150;52.352;14.058;2023-07-13T07:21:48;25.70;16.30
326;DHT22;150;52.352;14.058;2023-07-13T07:24:16;25.70;16.30
326;DHT22;150;52.352;14.058;2023-07-13T07:26:43;25.80;14.80
326;DHT22;150;52.352;14.058;2023-07-13T07:29:21;25.70;15.20
326;DHT22;150;52.352;14.058;2023-07-13T07:31:50;25.70;15.60
326;DHT22;150;52.352;14.058;2023-07-13T07:34:17;25.70;15.10
326;DHT22;150;52.352;14.058;2023-07-13T07:36:48;25.80;14.80
326;DHT22;150;52.352;14.058;2023-07-13T07:39:27;25.90;14.80
326;DHT22;150;52.352;14.058;2023-07-13T07:41:54;25.90;13.50
326;DHT22;150;52.352;14.058;2023-07-13T07:44:30;26.10;15.00
326;DHT22;150;52.352;14.058;2023-07-13T07:47:00;26.40;15.40
326;DHT22;150;52.352;14.058;2023-07-13T07:49:27;26.30;15.20
326;DHT22;150;52.352;14.058;2023-07-13T07:51:54;26.30;14.00
326;DHT22;150;52.352;14.058;2023-07-13T07:54:22;26.40;14.70
326;DHT22;150;52.352;14.058;2023-07-13T07:56:48;26.50;13.20
326;DHT22;150;52.352;14.058;2023-07-13T07:59:15;26.50;12.70
326;DHT22;150;52.352;14.058;2023-07-13T08:01:41;26.60;12.90
326;DHT22;150;52.352;14.058;2023-07-13T08:04:11;26.70;12.80
326;DHT22;150;52.352;14.058;2023-07-13T08:06:37;26.60;12.60
326;DHT22;150;52.352;14.058;2023-07-13T08:09:04;26.60;13.00
326;DHT22;150;52.352;14.058;2023-07-13T08:11:32;26.70;12.40
326;DHT22;150;52.352;14.058;2023-07-13T08:13:59;26.60;11.80
326;DHT22;150;52.352;14.058;2023-07-13T08:16:26;26.70;12.20
326;DHT22;150;52.352;14.058;2023-07-13T08:18:53;26.70;11.30
326;DHT22;150;52.352;14.058;2023-07-13T08:21:20;26.90;11.40
326;DHT22;150;52.352;14.058;2023-07-13T08:23:47;27.00;12.20
326;DHT22;150;52.352;14.058;2023-07-13T08:26:14;27.10;10.80
326;DHT22;150;52.352;14.058;2023-07-13T08:28:42;27.10;12.60
326;DHT22;150;52.352;14.058;2023-07-13T08:31:09;27.10;10.30
326;DHT22;150;52.352;14.058;2023-07-13T08:33:36;27.00;10.00
326;DHT22;150;52.352;14.058;2023-07-13T08:36:04;27.00;10.60
326;DHT22;150;52.352;14.058;2023-07-13T08:38:31;27.00;10.90
326;DHT22;150;52.352;14.058;2023-07-13T08:40:58;27.20;10.90
326;DHT22;150;52.352;14.058;2023-07-13T08:43:26;27.30;10.40
326;DHT22;150;52.352;14.058;2023-07-13T08:46:01;27.40;9.70
326;DHT22;150;52.352;14.058;2023-07-13T08:48:32;27.40;9.80
326;DHT22;150;52.352;14.058;2023-07-13T08:51:14;27.50;9.60
326;DHT22;150;52.352;14.058;2023-07-13T08:53:48;27.30;9.00
326;DHT22;150;52.352;14.058;2023-07-13T08:56:19;27.50;10.30
326;DHT22;150;52.352;14.058;2023-07-13T08:58:50;27.50;8.60
326;DHT22;150;52.352;14.058;2023-07-13T09:04:35;27.80;7.30
326;DHT22;150;52.352;14.058;2023-07-13T09:07:11;27.90;6.90
326;DHT22;150;52.352;14.058;2023-07-13T09:09:50;27.90;6.60
326;DHT22;150;52.352;14.058;2023-07-13T09:12:25;27.70;7.00
326;DHT22;150;52.352;14.058;2023-07-13T09:14:55;27.70;6.80
326;DHT22;150;52.352;14.058;2023-07-13T09:17:25;27.60;7.70
326;DHT22;150;52.352;14.058;2023-07-13T09:19:58;27.60;7.10
326;DHT22;150;52.352;14.058;2023-07-13T09:22:27;27.60;7.20
326;DHT22;150;52.352;14.058;2023-07-13T09:25:02;27.60;7.90
326;DHT22;150;52.352;14.058;2023-07-13T09:27:36;27.60;7.80
326;DHT22;150;52.352;14.058;2023-07-13T09:30:20;27.50;7.40
326;DHT22;150;52.352;14.058;2023-07-13T09:32:52;27.50;6.80
326;DHT22;150;52.352;14.058;2023-07-13T09:35:22;27.30;7.70
326;DHT22;150;52.352;14.058;2023-07-13T09:37:50;27.10;7.60
326;DHT22;150;52.352;14.058;2023-07-13T09:40:26;27.00;7.50
326;DHT22;150;52.352;14.058;2023-07-13T09:42:54;27.00;7.70
326;DHT22;150;52.352;14.058;2023-07-13T09:45:27;27.00;8.30
326;DHT22;150;52.352;14.058;2023-07-13T09:47:59;26.90;8.00
326;DHT22;150;52.352;14.058;2023-07-13T09:50:27;26.80;8.80
326;DHT22;150;52.352;14.058;2023-07-13T09:52:54;26.80;8.40
326;DHT22;150;52.352;14.058;2023-07-13T09:55:27;26.70;9.10
326;DHT22;150;52.352;14.058;2023-07-13T09:57:55;26.90;10.80
326;DHT22;150;52.352;14.058;2023-07-13T10:00:24;27.10;9.80
326;DHT22;150;52.352;14.058;2023-07-13T10:03:23;27.20;8.20
326;DHT22;150;52.352;14.058;2023-07-13T10:06:11;27.00;8.60
326;DHT22;150;52.352;14.058;2023-07-13T10:08:38;27.00;9.10
326;DHT22;150;52.352;14.058;2023-07-13T10:11:14;26.90;8.90
326;DHT22;150;52.352;14.058;2023-07-13T10:13:43;27.00;8.70
326;DHT22;150;52.352;14.058;2023-07-13T10:16:11;27.10;10.20
326;DHT22;150;52.352;14.058;2023-07-13T10:18:43;27.20;11.20
326;DHT22;150;52.352;14.058;2023-07-13T10:21:15;27.50;10.70
326;DHT22;150;52.352;14.058;2023-07-13T10:23:46;27.60;10.20
326;DHT22;150;52.352;14.058;2023-07-13T10:26:19;27.50;9.50
326;DHT22;150;52.352;14.058;2023-07-13T10:28:51;27.60;8.90
326;DHT22;150;52.352;14.058;2023-07-13T10:31:19;27.60;8.90
326;DHT22;150;52.352;14.058;2023-07-13T10:33:47;27.50;7.80
326;DHT22;150;52.352;14.058;2023-07-13T10:36:20;27.60;9.90
326;DHT22;150;52.352;14.058;2023-07-13T10:38:50;27.60;9.40
326;DHT22;150;52.352;14.058;2023-07-13T10:41:19;27.60;8.70
326;DHT22;150;52.352;14.058;2023-07-13T10:43:52;27.50;7.80
326;DHT22;150;52.352;14.058;2023-07-13T10:46:24;27.30;7.80
326;DHT22;150;52.352;14.058;2023-07-13T10:48:54;27.10;8.60
326;DHT22;150;52.352;14.058;2023-07-13T10:51:25;27.00;8.50
326;DHT22;150;52.352;14.058;2023-07-13T10:54:18;27.00;8.60
326;DHT22;150;52.352;14.058;2023-07-13T10:56:49;26.90;7.50
326;DHT22;150;52.352;14.058;2023-07-13T10:59:25;26.80;8.60
326;DHT22;150;52.352;14.058;2023-07-13T11:01:58;26.80;8.70
326;DHT22;150;52.352;14.058;2023-07-13T11:04:41;26.80;8.90
326;DHT22;150;52.352;14.058;2023-07-13T11:07:22;26.80;8.10
326;DHT22;150;52.352;14.058;2023-07-13T11:10:42;26.90;9.30
326;DHT22;150;52.352;14.058;2023-07-13T11:15:51;27.60;7.90
326;DHT22;150;52.352;14.058;2023-07-13T11:18:23;27.80;8.50
326;DHT22;150;52.352;14.058;2023-07-13T11:20:51;27.90;7.50
326;DHT22;150;52.352;14.058;2023-07-13T11:23:32;28.10;6.40
326;DHT22;150;52.352;14.058;2023-07-13T11:25:59;28.20;7.50
326;DHT22;150;52.352;14.058;2023-07-13T11:28:31;28.50;8.10
326;DHT22;150;52.352;14.058;2023-07-13T11:31:03;28.60;6.70
326;DHT22;150;52.352;14.058;2023-07-13T11:33:56;28.40;7.90
326;DHT22;150;52.352;14.058;2023-07-13T11:36:31;28.60;6.50
326;DHT22;150;52.352;14.058;2023-07-13T11:39:19;28.50;5.90
326;DHT22;150;52.352;14.058;2023-07-13T11:41:53;28.60;5.60
326;DHT22;150;52.352;14.058;2023-07-13T11:44:23;28.70;6.10
326;DHT22;150;52.352;14.058;2023-07-13T11:46:52;28.60;6.20
326;DHT22;150;52.352;14.058;2023-07-13T11:49:21;28.60;6.10
326;DHT22;150;52.352;14.058;2023-07-13T11:51:49;28.90;6.90
326;DHT22;150;52.352;14.058;2023-07-13T11:54:29;28.90;5.90
326;DHT22;150;52.352;14.058;2023-07-13T11:56:59;29.10;6.50
326;DHT22;150;52.352;14.058;2023-07-13T11:59:29;29.10;4.70
326;DHT22;150;52.352;14.058;2023-07-13T12:01:57;29.80;5.50
326;DHT22;150;52.352;14.058;2023-07-13T12:04:27;28.90;4.60
326;DHT22;150;52.352;14.058;2023-07-13T12:06:57;28.90;4.20
326;DHT22;150;52.352;14.058;2023-07-13T12:09:28;28.90;4.80
326;DHT22;150;52.352;14.058;2023-07-13T12:11:57;29.10;4.20
326;DHT22;150;52.352;14.058;2023-07-13T12:14:26;28.80;5.00
326;DHT22;150;52.352;14.058;2023-07-13T12:16:53;28.80;5.30
326;DHT22;150;52.352;14.058;2023-07-13T12:19:24;28.90;5.80
326;DHT22;150;52.352;14.058;2023-07-13T12:21:54;29.00;5.40
326;DHT22;150;52.352;14.058;2023-07-13T12:24:23;29.10;4.30
326;DHT22;150;52.352;14.058;2023-07-13T12:26:53;29.20;3.90
326;DHT22;150;52.352;14.058;2023-07-13T12:29:21;29.30;3.80
326;DHT22;150;52.352;14.058;2023-07-13T12:31:49;29.30;3.40
326;DHT22;150;52.352;14.058;2023-07-13T12:34:19;29.50;2.90
326;DHT22;150;52.352;14.058;2023-07-13T12:36:48;29.30;3.40
326;DHT22;150;52.352;14.058;2023-07-13T12:39:18;29.20;3.20
326;DHT22;150;52.352;14.058;2023-07-13T12:41:46;29.20;1.00
326;DHT22;150;52.352;14.058;2023-07-13T12:44:17;29.30;1.00
326;DHT22;150;52.352;14.058;2023-07-13T12:46:53;29.30;2.10
326;DHT22;150;52.352;14.058;2023-07-13T12:49:25;29.40;1.70
326;DHT22;150;52.352;14.058;2023-07-13T12:51:58;29.40;1.50
326;DHT22;150;52.352;14.058;2023-07-13T12:54:27;29.40;1.90
326;DHT22;150;52.352;14.058;2023-07-13T12:56:54;29.40;1.50
326;DHT22;150;52.352;14.058;2023-07-13T12:59:29;29.30;1.60
326;DHT22;150;52.352;14.058;2023-07-13T13:01:59;29.20;2.20
326;DHT22;150;52.352;14.058;2023-07-13T13:04:26;29.00;2.30
326;DHT22;150;52.352;14.058;2023-07-13T13:07:01;28.90;2.10
326;DHT22;150;52.352;14.058;2023-07-13T13:09:28;29.00;2.40
326;DHT22;150;52.352;14.058;2023-07-13T13:11:55;29.20;2.60
326;DHT22;150;52.352;14.058;2023-07-13T13:14:23;29.20;2.80
326;DHT22;150;52.352;14.058;2023-07-13T13:16:53;29.10;2.50
326;DHT22;150;52.352;14.058;2023-07-13T13:19:23;29.00;3.90
326;DHT22;150;52.352;14.058;2023-07-13T13:21:51;28.90;3.30
326;DHT22;150;52.352;14.058;2023-07-13T13:24:20;29.00;3.40
326;DHT22;150;52.352;14.058;2023-07-13T13:26:48;29.00;2.60
326;DHT22;150;52.352;14.058;2023-07-13T13:29:17;29.00;2.60
326;DHT22;150;52.352;14.058;2023-07-13T13:31:44;29.10;2.00
326;DHT22;150;52.352;14.058;2023-07-13T13:34:14;29.20;2.50
326;DHT22;150;52.352;14.058;2023-07-13T13:36:42;29.20;3.50
326;DHT22;150;52.352;14.058;2023-07-13T13:39:20;29.10;1.80
326;DHT22;150;52.352;14.058;2023-07-13T13:41:49;29.00;2.20
326;DHT22;150;52.352;14.058;2023-07-13T13:44:17;29.30;2.80
326;DHT22;150;52.352;14.058;2023-07-13T13:46:45;28.90;2.30
326;DHT22;150;52.352;14.058;2023-07-13T13:49:16;28.90;1.90
326;DHT22;150;52.352;14.058;2023-07-13T13:51:44;29.10;2.00
326;DHT22;150;52.352;14.058;2023-07-13T13:54:13;29.30;3.00
326;DHT22;150;52.352;14.058;2023-07-13T13:56:42;29.50;2.10
326;DHT22;150;52.352;14.058;2023-07-13T13:59:09;29.70;1.00
326;DHT22;150;52.352;14.058;2023-07-13T14:01:37;29.60;1.00
326;DHT22;150;52.352;14.058;2023-07-13T14:04:06;29.50;1.00
326;DHT22;150;52.352;14.058;2023-07-13T14:06:35;29.40;1.40
326;DHT22;150;52.352;14.058;2023-07-13T14:09:02;29.10;2.00
326;DHT22;150;52.352;14.058;2023-07-13T14:11:30;29.10;1.70
326;DHT22;150;52.352;14.058;2023-07-13T14:13:59;28.90;2.10
326;DHT22;150;52.352;14.058;2023-07-13T14:16:30;28.80;1.70
326;DHT22;150;52.352;14.058;2023-07-13T14:18:58;28.80;2.00
326;DHT22;150;52.352;14.058;2023-07-13T14:21:27;28.80;2.40
326;DHT22;150;52.352;14.058;2023-07-13T14:23:56;28.80;2.00
326;DHT22;150;52.352;14.058;2023-07-13T14:26:25;28.70;2.70
326;DHT22;150;52.352;14.058;2023-07-13T14:28:54;28.90;1.90
326;DHT22;150;52.352;14.058;2023-07-13T14:31:22;29.00;2.00
326;DHT22;150;52.352;14.058;2023-07-13T14:33:51;29.00;2.50
326;DHT22;150;52.352;14.058;2023-07-13T14:36:26;29.00;2.00
326;DHT22;150;52.352;14.058;2023-07-13T14:38:56;29.10;1.60
326;DHT22;150;52.352;14.058;2023-07-13T14:41:24;29.10;1.40
326;DHT22;150;52.352;14.058;2023-07-13T14:43:51;29.00;1.90
326;DHT22;150;52.352;14.058;2023-07-13T14:46:32;28.90;2.30
326;DHT22;150;52.352;14.058;2023-07-13T14:49:01;29.00;2.30
326;DHT22;150;52.352;14.058;2023-07-13T14:51:30;29.00;1.10
326;DHT22;150;52.352;14.058;2023-07-13T14:54:04;29.20;3.10
326;DHT22;150;52.352;14.058;2023-07-13T14:56:31;29.20;1.20
326;DHT22;150;52.352;14.058;2023-07-13T14:58:58;29.20;1.30
326;DHT22;150;52.352;14.058;2023-07-13T15:01:28;29.20;1.00
326;DHT22;150;52.352;14.058;2023-07-13T15:03:56;29.20;2.30
326;DHT22;150;52.352;14.058;2023-07-13T15:06:27;29.00;1.60
326;DHT22;150;52.352;14.058;2023-07-13T15:08:58;29.10;1.80
326;DHT22;150;52.352;14.058;2023-07-13T15:11:26;28.90;2.60
326;DHT22;150;52.352;14.058;2023-07-13T15:13:53;28.90;1.90
326;DHT22;150;52.352;14.058;2023-07-13T15:16:23;28.70;2.30
326;DHT22;150;52.352;14.058;2023-07-13T15:18:53;28.80;1.40
326;DHT22;150;52.352;14.058;2023-07-13T15:21:24;28.80;1.00
326;DHT22;150;52.352;14.058;2023-07-13T15:24:01;29.10;3.00
326;DHT22;150;52.352;14.058;2023-07-13T15:26:28;29.00;1.00
326;DHT22;150;52.352;14.058;2023-07-13T15:28:57;28.90;1.30
326;DHT22;150;52.352;14.058;2023-07-13T15:31:26;28.80;1.20
326;DHT22;150;52.352;14.058;2023-07-13T15:33:57;28.90;1.80
326;DHT22;150;52.352;14.058;2023-07-13T15:36:27;28.80;1.20
326;DHT22;150;52.352;14.058;2023-07-13T15:38:55;28.80;1.90
326;DHT22;150;52.352;14.058;2023-07-13T15:41:25;28.90;2.00
326;DHT22;150;52.352;14.058;2023-07-13T15:43:54;28.90;3.30
326;DHT22;150;52.352;14.058;2023-07-13T15:46:24;28.80;1.70
326;DHT22;150;52.352;14.058;2023-07-13T15:48:52;28.70;2.30
326;DHT22;150;52.352;14.058;2023-07-13T15:51:23;28.80;2.80
326;DHT22;150;52.352;14.058;2023-07-13T15:54:12;28.80;2.00
326;DHT22;150;52.352;14.058;2023-07-13T15:56:41;28.80;2.00
326;DHT22;150;52.352;14.058;2023-07-13T15:59:11;28.70;2.20
326;DHT22;150;52.352;14.058;2023-07-13T16:01:40;28.70;2.40
326;DHT22;150;52.352;14.058;2023-07-13T16:04:08;28.70;2.00
326;DHT22;150;52.352;14.058;2023-07-13T16:06:36;28.70;1.90
326;DHT22;150;52.352;14.058;2023-07-13T16:09:05;28.50;1.50
326;DHT22;150;52.352;14.058;2023-07-13T16:11:35;28.60;1.70
326;DHT22;150;52.352;14.058;2023-07-13T16:14:04;28.60;2.10
326;DHT22;150;52.352;14.058;2023-07-13T16:16:33;28.70;2.20
326;DHT22;150;52.352;14.058;2023-07-13T16:19:04;28.70;1.10
326;DHT22;150;52.352;14.058;2023-07-13T16:21:33;28.80;1.30
326;DHT22;150;52.352;14.058;2023-07-13T16:24:02;28.70;1.20
326;DHT22;150;52.352;14.058;2023-07-13T16:26:35;28.60;1.00
326;DHT22;150;52.352;14.058;2023-07-13T16:29:14;28.60;1.10
326;DHT22;150;52.352;14.058;2023-07-13T16:31:41;28.60;1.50
326;DHT22;150;52.352;14.058;2023-07-13T16:34:09;28.50;1.10
326;DHT22;150;52.352;14.058;2023-07-13T16:36:36;28.40;1.00
326;DHT22;150;52.352;14.058;2023-07-13T16:39:12;28.50;1.00
326;DHT22;150;52.352;14.058;2023-07-13T16:41:40;28.50;1.00
326;DHT22;150;52.352;14.058;2023-07-13T16:44:12;28.60;1.40
326;DHT22;150;52.352;14.058;2023-07-13T16:46:39;28.60;1.00
326;DHT22;150;52.352;14.058;2023-07-13T16:49:23;28.50;1.00